sensor_id;sensor_type;location;lat;lon;timestamp;pressure;altitude;pressure_sealevel;temperature;humidity
76050;BME280;64967;50.234;19.224;2023-06-24T14:14:01;98944.63;;;18.40;90.57
76050;BME280;64967;50.234;19.224;2023-06-24T14:16:28;98938.03;;;18.52;89.47
76050;BME280;64967;50.234;19.224;2023-06-24T14:18:55;98934.81;;;18.55;90.41
76050;BME280;64967;50.234;19.224;2023-06-24T14:21:27;98938.94;;;18.69;87.42
76050;BME280;64967;50.234;19.224;2023-06-24T14:24:19;98932.16;;;18.72;83.96
76050;BME280;64967;50.234;19.224;2023-06-24T14:27:07;98938.47;;;18.73;81.30
76050;BME280;64967;50.234;19.224;2023-06-24T14:29:54;98931.50;;;18.82;81.75
76050;BME280;64967;50.234;19.224;2023-06-24T14:32:37;98922.38;;;18.93;82.22
76050;BME280;64967;50.234;19.224;2023-06-24T14:35:12;98931.13;;;19.06;79.57
76050;BME280;64967;50.234;19.224;2023-06-24T14:37:58;98936.44;;;19.13;81.20
76050;BME280;64967;50.234;19.224;2023-06-24T14:40:44;98923.41;;;19.20;80.24
76050;BME280;64967;50.234;19.224;2023-06-24T14:43:33;98931.81;;;19.30;80.11
76050;BME280;64967;50.234;19.224;2023-06-24T14:46:33;98923.81;;;19.29;79.74
76050;BME280;64967;50.234;19.224;2023-06-24T14:49:17;98920.25;;;19.28;80.14
76050;BME280;64967;50.234;19.224;2023-06-24T14:52:04;98922.06;;;19.39;79.26
76050;BME280;64967;50.234;19.224;2023-06-24T14:54:52;98914.63;;;19.18;78.06
76050;BME280;64967;50.234;19.224;2023-06-24T14:57:40;98911.94;;;19.23;78.85
76050;BME280;64967;50.234;19.224;2023-06-24T15:00:35;98913.25;;;19.37;81.30
76050;BME280;64967;50.234;19.224;2023-06-24T15:03:23;98918.59;;;19.27;79.04
76050;BME280;64967;50.234;19.224;2023-06-24T15:06:05;98916.34;;;19.24;79.71
76050;BME280;64967;50.234;19.224;2023-06-24T15:08:51;98915.84;;;19.27;80.42
76050;BME280;64967;50.234;19.224;2023-06-24T15:11:40;98912.94;;;19.34;81.16
76050;BME280;64967;50.234;19.224;2023-06-24T15:14:26;98912.28;;;19.43;81.17
76050;BME280;64967;50.234;19.224;2023-06-24T15:17:10;98917.06;;;19.36;78.80
76050;BME280;64967;50.234;19.224;2023-06-24T15:19:53;98920.66;;;19.37;80.28
76050;BME280;64967;50.234;19.224;2023-06-24T15:22:42;98914.44;;;19.25;80.27
76050;BME280;64967;50.234;19.224;2023-06-24T15:25:25;98917.91;;;19.20;80.73
76050;BME280;64967;50.234;19.224;2023-06-24T15:28:12;98925.63;;;19.06;80.16
76050;BME280;64967;50.234;19.224;2023-06-24T15:30:55;98921.22;;;19.05;79.54
76050;BME280;64967;50.234;19.224;2023-06-24T15:33:22;98922.47;;;18.98;80.12
76050;BME280;64967;50.234;19.224;2023-06-24T15:35:49;98929.13;;;19.02;79.79
76050;BME280;64967;50.234;19.224;2023-06-24T15:38:16;98919.72;;;18.98;78.78
76050;BME280;64967;50.234;19.224;2023-06-24T15:40:43;98926.78;;;18.94;80.74
76050;BME280;64967;50.234;19.224;2023-06-24T15:43:10;98931.03;;;19.01;79.46
76050;BME280;64967;50.234;19.224;2023-06-24T15:45:38;98924.28;;;18.92;79.83
76050;BME280;64967;50.234;19.224;2023-06-24T15:48:05;98929.19;;;18.90;79.65
76050;BME280;64967;50.234;19.224;2023-06-24T15:50:32;98925.72;;;18.95;78.14
76050;BME280;64967;50.234;19.224;2023-06-24T15:52:59;98923.22;;;18.93;79.44
76050;BME280;64967;50.234;19.224;2023-06-24T15:55:26;98932.69;;;18.86;80.08
76050;BME280;64967;50.234;19.224;2023-06-24T15:57:53;98936.63;;;18.78;78.97
76050;BME280;64967;50.234;19.224;2023-06-24T16:00:19;98923.81;;;18.67;78.45
76050;BME280;64967;50.234;19.224;2023-06-24T16:02:46;98935.72;;;18.73;79.42
76050;BME280;64967;50.234;19.224;2023-06-24T16:05:13;98933.34;;;18.64;78.76
76050;BME280;64967;50.234;19.224;2023-06-24T16:07:40;98929.44;;;18.60;79.15
76050;BME280;64967;50.234;19.224;2023-06-24T16:10:07;98926.47;;;18.62;79.45
76050;BME280;64967;50.234;19.224;2023-06-24T16:12:35;98933.13;;;18.66;79.55
76050;BME280;64967;50.234;19.224;2023-06-24T16:15:02;98928.81;;;18.70;78.65
76050;BME280;64967;50.234;19.224;2023-06-24T16:17:29;98919.72;;;18.53;78.11
76050;BME280;64967;50.234;19.224;2023-06-24T16:19:56;98930.88;;;18.63;80.00
76050;BME280;64967;50.234;19.224;2023-06-24T16:22:23;98928.59;;;18.60;79.75
76050;BME280;64967;50.234;19.224;2023-06-24T16:24:50;98930.88;;;18.51;77.47
76050;BME280;64967;50.234;19.224;2023-06-24T16:27:16;98929.50;;;18.37;77.81
76050;BME280;64967;50.234;19.224;2023-06-24T16:29:43;98934.63;;;18.34;79.10
76050;BME280;64967;50.234;19.224;2023-06-24T16:32:10;98903.28;;;18.01;78.59
76050;BME280;64967;50.234;19.224;2023-06-24T16:34:37;98935.16;;;18.19;78.24
76050;BME280;64967;50.234;19.224;2023-06-24T16:37:04;98923.75;;;18.10;78.68
76050;BME280;64967;50.234;19.224;2023-06-24T16:39:31;98927.91;;;18.13;78.19
76050;BME280;64967;50.234;19.224;2023-06-24T16:41:58;98928.50;;;18.15;78.77
76050;BME280;64967;50.234;19.224;2023-06-24T16:44:24;98930.75;;;18.18;78.94
76050;BME280;64967;50.234;19.224;2023-06-24T16:46:53;98931.59;;;18.18;79.45
76050;BME280;64967;50.234;19.224;2023-06-24T16:49:20;98931.34;;;18.20;79.96
76050;BME280;64967;50.234;19.224;2023-06-24T16:51:46;98925.13;;;18.24;80.43
76050;BME280;64967;50.234;19.224;2023-06-24T16:54:13;98934.53;;;18.28;80.98
76050;BME280;64967;50.234;19.224;2023-06-24T16:56:40;98929.78;;;18.24;79.81
76050;BME280;64967;50.234;19.224;2023-06-24T16:59:07;98926.97;;;18.19;78.24
76050;BME280;64967;50.234;19.224;2023-06-24T17:01:34;98924.78;;;18.21;80.14
76050;BME280;64967;50.234;19.224;2023-06-24T17:04:01;98919.81;;;18.18;83.82
76050;BME280;64967;50.234;19.224;2023-06-24T17:06:28;98915.28;;;18.23;83.41
76050;BME280;64967;50.234;19.224;2023-06-24T17:08:55;98910.03;;;18.22;82.40
76050;BME280;64967;50.234;19.224;2023-06-24T17:11:23;98910.53;;;18.19;80.19
76050;BME280;64967;50.234;19.224;2023-06-24T17:13:50;98917.47;;;18.10;79.82
76050;BME280;64967;50.234;19.224;2023-06-24T17:16:17;98902.09;;;18.09;80.87
76050;BME280;64967;50.234;19.224;2023-06-24T17:18:44;98916.13;;;18.12;84.79
76050;BME280;64967;50.234;19.224;2023-06-24T17:21:38;98908.75;;;18.13;82.40
76050;BME280;64967;50.234;19.224;2023-06-24T17:24:05;98906.50;;;18.10;83.46
76050;BME280;64967;50.234;19.224;2023-06-24T17:26:32;98910.78;;;18.06;84.20
76050;BME280;64967;50.234;19.224;2023-06-24T17:28:59;98908.03;;;18.06;83.55
76050;BME280;64967;50.234;19.224;2023-06-24T17:31:26;98908.88;;;18.06;83.04
76050;BME280;64967;50.234;19.224;2023-06-24T17:33:54;98906.75;;;18.08;84.59
76050;BME280;64967;50.234;19.224;2023-06-24T17:36:24;98908.41;;;17.98;82.03
76050;BME280;64967;50.234;19.224;2023-06-24T17:38:51;98913.91;;;17.98;84.59
76050;BME280;64967;50.234;19.224;2023-06-24T17:41:18;98916.16;;;18.01;84.20
76050;BME280;64967;50.234;19.224;2023-06-24T17:43:46;98900.22;;;17.98;85.11
76050;BME280;64967;50.234;19.224;2023-06-24T17:46:12;98902.94;;;17.98;85.55
76050;BME280;64967;50.234;19.224;2023-06-24T17:48:39;98894.16;;;17.96;85.30
76050;BME280;64967;50.234;19.224;2023-06-24T17:51:06;98897.97;;;17.95;85.28
76050;BME280;64967;50.234;19.224;2023-06-24T17:53:33;98896.31;;;17.94;86.06
76050;BME280;64967;50.234;19.224;2023-06-24T17:56:00;98887.75;;;17.90;86.51
76050;BME280;64967;50.234;19.224;2023-06-24T17:58:27;98877.91;;;17.77;87.50
76050;BME280;64967;50.234;19.224;2023-06-24T18:00:54;98882.31;;;17.78;88.55
76050;BME280;64967;50.234;19.224;2023-06-24T18:03:21;98896.78;;;17.79;88.21
76050;BME280;64967;50.234;19.224;2023-06-24T18:05:50;98896.56;;;17.80;88.83
76050;BME280;64967;50.234;19.224;2023-06-24T18:08:17;98904.06;;;17.85;87.96
76050;BME280;64967;50.234;19.224;2023-06-24T18:10:44;98890.97;;;17.87;86.69
76050;BME280;64967;50.234;19.224;2023-06-24T18:13:11;98893.00;;;17.92;88.43
76050;BME280;64967;50.234;19.224;2023-06-24T18:15:38;98884.28;;;17.95;86.30
76050;BME280;64967;50.234;19.224;2023-06-24T18:18:04;98884.88;;;17.97;86.38
76050;BME280;64967;50.234;19.224;2023-06-24T18:20:31;98895.34;;;18.00;84.57
76050;BME280;64967;50.234;19.224;2023-06-24T18:22:59;98893.19;;;18.02;85.22
76050;BME280;64967;50.234;19.224;2023-06-24T18:25:25;98897.34;;;18.04;85.82
76050;BME280;64967;50.234;19.224;2023-06-24T18:27:52;98893.78;;;18.04;85.18
76050;BME280;64967;50.234;19.224;2023-06-24T18:30:19;98894.03;;;18.02;84.91
76050;BME280;64967;50.234;19.224;2023-06-24T18:32:46;98900.31;;;18.03;82.81
76050;BME280;64967;50.234;19.224;2023-06-24T18:35:13;98897.59;;;18.03;83.36
76050;BME280;64967;50.234;19.224;2023-06-24T18:37:40;98893.19;;;18.02;84.04
76050;BME280;64967;50.234;19.224;2023-06-24T18:40:07;98892.34;;;18.01;85.08
76050;BME280;64967;50.234;19.224;2023-06-24T18:42:34;98892.00;;;17.98;85.26
76050;BME280;64967;50.234;19.224;2023-06-24T18:45:01;98847.09;;;17.70;85.26
76050;BME280;64967;50.234;19.224;2023-06-24T18:47:28;98890.50;;;17.90;85.48
76050;BME280;64967;50.234;19.224;2023-06-24T18:49:55;98893.00;;;17.92;85.85
76050;BME280;64967;50.234;19.224;2023-06-24T18:52:22;98893.00;;;17.92;86.86
76050;BME280;64967;50.234;19.224;2023-06-24T18:54:49;98887.28;;;17.81;89.22
76050;BME280;64967;50.234;19.224;2023-06-24T18:57:16;98886.13;;;17.77;87.59
76050;BME280;64967;50.234;19.224;2023-06-24T18:59:43;98898.13;;;17.76;87.76
76050;BME280;64967;50.234;19.224;2023-06-24T19:02:10;98891.47;;;17.72;87.34
76050;BME280;64967;50.234;19.224;2023-06-24T19:04:37;98893.03;;;17.68;87.69
76050;BME280;64967;50.234;19.224;2023-06-24T19:07:04;98895.66;;;17.63;88.09
76050;BME280;64967;50.234;19.224;2023-06-24T19:09:32;98903.72;;;17.58;87.76
76050;BME280;64967;50.234;19.224;2023-06-24T19:12:00;98898.09;;;17.53;87.82
76050;BME280;64967;50.234;19.224;2023-06-24T19:14:27;98904.91;;;17.51;87.17
76050;BME280;64967;50.234;19.224;2023-06-24T19:16:55;98891.81;;;17.41;87.66
76050;BME280;64967;50.234;19.224;2023-06-24T19:19:22;98895.84;;;17.38;88.18
76050;BME280;64967;50.234;19.224;2023-06-24T19:21:49;98899.91;;;17.36;88.70
76050;BME280;64967;50.234;19.224;2023-06-24T19:24:16;98895.38;;;17.30;88.27
76050;BME280;64967;50.234;19.224;2023-06-24T19:26:43;98901.31;;;17.27;88.08
76050;BME280;64967;50.234;19.224;2023-06-24T19:29:10;98897.28;;;17.18;88.47
76050;BME280;64967;50.234;19.224;2023-06-24T19:31:37;98909.97;;;17.12;87.48
76050;BME280;64967;50.234;19.224;2023-06-24T19:34:04;98896.88;;;17.03;87.23
76050;BME280;64967;50.234;19.224;2023-06-24T19:36:31;98913.13;;;16.98;87.01
76050;BME280;64967;50.234;19.224;2023-06-24T19:39:26;98915.78;;;16.92;88.79
76050;BME280;64967;50.234;19.224;2023-06-24T19:41:54;98906.84;;;16.85;89.73
76050;BME280;64967;50.234;19.224;2023-06-24T19:44:21;98911.56;;;16.78;89.38
76050;BME280;64967;50.234;19.224;2023-06-24T19:46:48;98911.91;;;16.70;88.71
76050;BME280;64967;50.234;19.224;2023-06-24T19:49:15;98892.03;;;16.63;89.78
76050;BME280;64967;50.234;19.224;2023-06-24T19:51:42;98916.03;;;16.61;89.80
76050;BME280;64967;50.234;19.224;2023-06-24T19:54:11;98912.53;;;16.54;89.41
76050;BME280;64967;50.234;19.224;2023-06-24T19:56:37;98903.34;;;16.48;89.55
76050;BME280;64967;50.234;19.224;2023-06-24T19:59:04;98899.19;;;16.46;90.95
76050;BME280;64967;50.234;19.224;2023-06-24T20:01:31;98902.16;;;16.44;90.68
76050;BME280;64967;50.234;19.224;2023-06-24T20:03:58;98908.16;;;16.35;91.58
76050;BME280;64967;50.234;19.224;2023-06-24T20:06:26;98899.09;;;16.23;93.34
76050;BME280;64967;50.234;19.224;2023-06-24T20:08:53;98894.72;;;16.03;94.76
76050;BME280;64967;50.234;19.224;2023-06-24T20:11:20;98893.97;;;15.96;94.41
76050;BME280;64967;50.234;19.224;2023-06-24T20:13:47;98891.09;;;15.91;94.75
76050;BME280;64967;50.234;19.224;2023-06-24T20:16:15;98884.59;;;15.74;95.24
76050;BME280;64967;50.234;19.224;2023-06-24T20:18:42;98897.41;;;15.74;95.15
76050;BME280;64967;50.234;19.224;2023-06-24T20:21:09;98891.19;;;15.67;95.44
76050;BME280;64967;50.234;19.224;2023-06-24T20:23:40;98884.22;;;15.52;95.92
76050;BME280;64967;50.234;19.224;2023-06-24T20:26:07;98885.69;;;15.48;95.93
76050;BME280;64967;50.234;19.224;2023-06-24T20:28:34;98896.06;;;15.40;96.11
76050;BME280;64967;50.234;19.224;2023-06-24T20:31:01;98894.69;;;15.31;96.89
76050;BME280;64967;50.234;19.224;2023-06-24T20:33:30;98897.66;;;15.23;97.92
76050;BME280;64967;50.234;19.224;2023-06-24T20:35:58;98894.38;;;15.14;99.74
76050;BME280;64967;50.234;19.224;2023-06-24T20:38:25;98893.25;;;15.03;100.00
76050;BME280;64967;50.234;19.224;2023-06-24T20:40:52;98899.34;;;14.99;100.00
76050;BME280;64967;50.234;19.224;2023-06-24T20:43:21;98895.41;;;14.95;100.00
76050;BME280;64967;50.234;19.224;2023-06-24T20:45:53;98887.47;;;14.93;100.00
76050;BME280;64967;50.234;19.224;2023-06-24T20:48:24;98889.34;;;14.93;100.00
76050;BME280;64967;50.234;19.224;2023-06-24T20:50:51;98864.94;;;14.80;100.00
76050;BME280;64967;50.234;19.224;2023-06-24T20:53:18;98896.50;;;14.87;99.81
76050;BME280;64967;50.234;19.224;2023-06-24T20:55:44;98899.88;;;14.83;99.57
76050;BME280;64967;50.234;19.224;2023-06-24T20:58:11;98903.91;;;14.80;100.00
76050;BME280;64967;50.234;19.224;2023-06-24T21:00:38;98887.97;;;14.77;100.00
76050;BME280;64967;50.234;19.224;2023-06-24T21:03:05;98898.72;;;14.72;100.00
76050;BME280;64967;50.234;19.224;2023-06-24T21:05:34;98895.81;;;14.67;100.00
76050;BME280;64967;50.234;19.224;2023-06-24T21:08:00;98895.41;;;14.63;100.00
76050;BME280;64967;50.234;19.224;2023-06-24T21:10:27;98893.38;;;14.59;100.00
76050;BME280;64967;50.234;19.224;2023-06-24T21:12:54;98896.91;;;14.59;100.00
76050;BME280;64967;50.234;19.224;2023-06-24T21:15:25;98895.09;;;14.53;100.00
76050;BME280;64967;50.234;19.224;2023-06-24T21:17:52;98898.88;;;14.46;100.00
76050;BME280;64967;50.234;19.224;2023-06-24T21:20:19;98901.25;;;14.36;100.00
76050;BME280;64967;50.234;19.224;2023-06-24T21:22:45;98905.44;;;14.32;100.00
76050;BME280;64967;50.234;19.224;2023-06-24T21:25:12;98896.66;;;14.29;100.00
76050;BME280;64967;50.234;19.224;2023-06-24T21:27:39;98905.00;;;14.28;100.00
76050;BME280;64967;50.234;19.224;2023-06-24T21:30:06;98897.09;;;14.26;100.00
76050;BME280;64967;50.234;19.224;2023-06-24T21:32:33;98895.84;;;14.22;100.00
76050;BME280;64967;50.234;19.224;2023-06-24T21:35:01;98905.66;;;14.23;100.00
76050;BME280;64967;50.234;19.224;2023-06-24T21:37:28;98885.38;;;14.26;100.00
76050;BME280;64967;50.234;19.224;2023-06-24T21:39:55;98887.84;;;14.27;100.00
76050;BME280;64967;50.234;19.224;2023-06-24T21:42:22;98895.22;;;14.27;100.00
76050;BME280;64967;50.234;19.224;2023-06-24T21:44:49;98893.94;;;14.23;100.00
76050;BME280;64967;50.234;19.224;2023-06-24T21:47:16;98896.47;;;14.24;100.00
76050;BME280;64967;50.234;19.224;2023-06-24T21:49:43;98896.91;;;14.21;100.00
76050;BME280;64967;50.234;19.224;2023-06-24T21:52:10;98890.00;;;14.19;100.00
76050;BME280;64967;50.234;19.224;2023-06-24T21:54:37;98894.84;;;14.17;100.00
76050;BME280;64967;50.234;19.224;2023-06-24T21:57:04;98894.00;;;14.16;100.00
76050;BME280;64967;50.234;19.224;2023-06-24T21:59:31;98895.03;;;14.15;100.00
76050;BME280;64967;50.234;19.224;2023-06-24T22:02:01;98886.69;;;14.10;100.00
76050;BME280;64967;50.234;19.224;2023-06-24T22:04:28;98895.94;;;14.09;100.00
76050;BME280;64967;50.234;19.224;2023-06-24T22:06:55;98873.78;;;13.99;100.00
76050;BME280;64967;50.234;19.224;2023-06-24T22:09:22;98896.72;;;14.10;100.00
76050;BME280;64967;50.234;19.224;2023-06-24T22:11:49;98888.00;;;14.01;100.00
76050;BME280;64967;50.234;19.224;2023-06-24T22:14:15;98896.56;;;14.05;100.00
76050;BME280;64967;50.234;19.224;2023-06-24T22:16:44;98895.09;;;14.02;100.00
76050;BME280;64967;50.234;19.224;2023-06-24T22:19:10;98892.81;;;13.99;100.00
76050;BME280;64967;50.234;19.224;2023-06-24T22:21:38;98888.63;;;13.97;100.00
76050;BME280;64967;50.234;19.224;2023-06-24T22:24:05;98890.97;;;13.93;100.00
76050;BME280;64967;50.234;19.224;2023-06-24T22:26:32;98890.13;;;13.93;100.00
76050;BME280;64967;50.234;19.224;2023-06-24T22:28:59;98896.84;;;13.83;100.00
76050;BME280;64967;50.234;19.224;2023-06-24T22:31:25;98889.31;;;13.85;100.00
76050;BME280;64967;50.234;19.224;2023-06-24T22:33:53;98885.13;;;13.83;100.00
76050;BME280;64967;50.234;19.224;2023-06-24T22:36:19;98892.69;;;13.81;100.00
76050;BME280;64967;50.234;19.224;2023-06-24T22:38:46;98883.91;;;13.79;100.00
76050;BME280;64967;50.234;19.224;2023-06-24T22:41:13;98879.09;;;13.74;100.00
76050;BME280;64967;50.234;19.224;2023-06-24T22:44:05;98886.03;;;13.77;100.00
76050;BME280;64967;50.234;19.224;2023-06-24T22:46:32;98888.09;;;13.75;100.00
76050;BME280;64967;50.234;19.224;2023-06-24T22:48:59;98883.09;;;13.72;100.00
76050;BME280;64967;50.234;19.224;2023-06-24T22:51:26;98888.94;;;13.69;100.00
76050;BME280;64967;50.234;19.224;2023-06-24T22:53:53;98886.66;;;13.66;100.00
76050;BME280;64967;50.234;19.224;2023-06-24T22:56:20;98885.84;;;13.65;100.00
76050;BME280;64967;50.234;19.224;2023-06-24T22:58:47;98876.44;;;13.61;100.00
76050;BME280;64967;50.234;19.224;2023-06-24T23:01:14;98887.34;;;13.55;100.00
76050;BME280;64967;50.234;19.224;2023-06-24T23:03:41;98865.41;;;13.50;100.00
76050;BME280;64967;50.234;19.224;2023-06-24T23:06:09;98868.13;;;13.50;100.00
76050;BME280;64967;50.234;19.224;2023-06-24T23:08:36;98862.28;;;13.39;100.00
76050;BME280;64967;50.234;19.224;2023-06-24T23:11:03;98858.56;;;13.27;100.00
76050;BME280;64967;50.234;19.224;2023-06-24T23:13:32;98857.28;;;13.30;100.00
76050;BME280;64967;50.234;19.224;2023-06-24T23:16:02;98848.53;;;13.21;100.00
76050;BME280;64967;50.234;19.224;2023-06-24T23:18:29;98861.50;;;13.32;100.00
76050;BME280;64967;50.234;19.224;2023-06-24T23:20:57;98858.78;;;13.32;100.00
76050;BME280;64967;50.234;19.224;2023-06-24T23:23:25;98851.03;;;13.29;100.00
76050;BME280;64967;50.234;19.224;2023-06-24T23:25:53;98853.53;;;13.31;100.00
76050;BME280;64967;50.234;19.224;2023-06-24T23:28:21;98852.06;;;13.28;100.00
76050;BME280;64967;50.234;19.224;2023-06-24T23:30:49;98856.88;;;13.26;100.00
76050;BME280;64967;50.234;19.224;2023-06-24T23:33:17;98853.53;;;13.24;100.00
76050;BME280;64967;50.234;19.224;2023-06-24T23:35:47;98846.25;;;13.18;100.00
76050;BME280;64967;50.234;19.224;2023-06-24T23:38:17;98852.31;;;13.14;100.00
76050;BME280;64967;50.234;19.224;2023-06-24T23:40:45;98852.72;;;13.04;100.00
76050;BME280;64967;50.234;19.224;2023-06-24T23:43:12;98852.09;;;13.02;100.00
76050;BME280;64967;50.234;19.224;2023-06-24T23:45:47;98852.72;;;12.97;100.00
76050;BME280;64967;50.234;19.224;2023-06-24T23:48:15;98844.81;;;12.96;100.00
76050;BME280;64967;50.234;19.224;2023-06-24T23:50:43;98840.19;;;12.90;100.00
76050;BME280;64967;50.234;19.224;2023-06-24T23:53:10;98848.34;;;12.90;100.00
76050;BME280;64967;50.234;19.224;2023-06-24T23:55:37;98851.50;;;12.87;100.00
76050;BME280;64967;50.234;19.224;2023-06-24T23:58:04;98838.97;;;12.86;100.00
